Time;durP1;ratioP1;P1;durP2;ratioP2;P2;SDS_P1;SDS_P2;PMS_P1;PMS_P2;Temp;Humidity;BMP_temperature;BMP_pressure;BME280_temperature;BME280_humidity;BME280_pressure;Samples;Min_cycle;Max_cycle;Signal;HPM_P1;HPM_P2
2023/03/11 00:02:13;;;;;;;0.25;0.25;;;0.30;99.90;;;;;;5073079;28;20510;-76
2023/03/11 00:04:39;;;;;;;4.90;0.80;;;0.30;99.90;;;;;;5055168;28;20390;-76
2023/03/11 00:07:06;;;;;;;0.17;0.17;;;0.30;99.90;;;;;;5098907;27;20033;-76
2023/03/11 00:09:33;;;;;;;2.17;0.52;;;0.30;99.90;;;;;;5069953;28;20050;-75
2023/03/11 00:11:59;;;;;;;2.35;0.47;;;0.30;99.90;;;;;;5068344;28;20059;-75
2023/03/11 00:14:24;;;;;;;1.73;0.20;;;0.30;99.90;;;;;;5055325;28;20325;-75
2023/03/11 00:16:50;;;;;;;0.10;0.10;;;0.30;99.90;;;;;;5087452;28;20040;-76
2023/03/11 00:19:16;;;;;;;1.17;0.38;;;0.30;99.90;;;;;;5053451;28;20515;-75
2023/03/11 00:21:41;;;;;;;0.85;0.32;;;0.30;99.90;;;;;;5064827;28;20564;-75
2023/03/11 00:24:07;;;;;;;1.05;0.50;;;0.30;99.90;;;;;;5070224;28;20038;-76
2023/03/11 00:26:32;;;;;;;1.67;0.45;;;0.30;99.90;;;;;;5068967;28;20036;-75
2023/03/11 00:28:58;;;;;;;1.45;0.63;;;0.30;99.90;;;;;;5070807;28;20028;-75
2023/03/11 00:31:25;;;;;;;0.25;0.20;;;0.30;99.90;;;;;;5068797;28;20040;-75
2023/03/11 00:33:52;;;;;;;1.50;0.50;;;0.40;99.90;;;;;;5088296;28;20115;-75
2023/03/11 00:36:34;;;;;;;0.15;0.10;;;0.30;99.90;;;;;;5069230;28;20559;-75
2023/03/11 00:39:05;;;;;;;3.25;0.70;;;0.30;99.90;;;;;;5074561;28;20037;-75
2023/03/11 00:41:33;;;;;;;1.70;0.52;;;0.30;99.90;;;;;;5104937;27;20489;-75
2023/03/11 00:43:59;;;;;;;1.08;0.60;;;0.30;99.90;;;;;;5076547;28;20043;-75
2023/03/11 00:46:25;;;;;;;0.30;0.28;;;0.30;99.90;;;;;;5062712;28;20032;-75
2023/03/11 00:48:51;;;;;;;1.63;0.30;;;0.30;99.90;;;;;;5060816;28;20382;-75
2023/03/11 00:51:17;;;;;;;0.57;0.38;;;0.30;99.90;;;;;;5068030;28;20028;-75
2023/03/11 00:53:43;;;;;;;0.52;0.30;;;0.30;99.90;;;;;;5068107;28;20043;-76
2023/03/11 00:56:11;;;;;;;2.00;0.68;;;0.30;99.90;;;;;;5047990;28;20040;-75
2023/03/11 00:58:37;;;;;;;0.40;0.25;;;0.30;99.90;;;;;;5070969;28;20119;-75
2023/03/11 01:01:11;;;;;;;1.08;0.35;;;0.20;99.90;;;;;;5056203;28;20449;-75
2023/03/11 01:03:38;;;;;;;0.98;0.43;;;0.30;99.90;;;;;;5086927;28;20494;-75
2023/03/11 01:06:04;;;;;;;0.25;0.22;;;0.30;99.90;;;;;;5049915;28;20863;-75
2023/03/11 01:08:30;;;;;;;0.52;0.32;;;0.30;99.90;;;;;;5068296;28;20068;-75
2023/03/11 01:10:57;;;;;;;0.20;0.20;;;0.30;99.90;;;;;;5072086;28;20032;-75
2023/03/11 01:13:23;;;;;;;1.75;0.40;;;0.30;99.90;;;;;;5071069;28;20059;-75
2023/03/11 01:15:48;;;;;;;1.25;0.57;;;0.30;99.90;;;;;;5064835;28;20040;-75
2023/03/11 01:18:15;;;;;;;5.45;0.90;;;0.30;99.90;;;;;;5068188;28;20035;-75
2023/03/11 01:20:41;;;;;;;0.55;0.40;;;0.30;99.90;;;;;;5069114;28;20047;-75
2023/03/11 01:23:07;;;;;;;1.00;0.28;;;0.30;99.90;;;;;;5104933;27;20046;-75
2023/03/11 01:25:33;;;;;;;1.38;0.38;;;0.30;99.90;;;;;;5057938;28;20028;-76
2023/03/11 01:27:59;;;;;;;1.48;0.43;;;0.30;99.90;;;;;;5066172;28;20661;-75
2023/03/11 01:30:26;;;;;;;0.38;0.30;;;0.30;99.90;;;;;;5068065;28;20181;-75
2023/03/11 01:32:53;;;;;;;1.17;0.32;;;0.30;99.90;;;;;;5068554;28;20040;-75
2023/03/11 01:35:21;;;;;;;0.70;0.40;;;0.30;99.90;;;;;;5064114;28;20044;-75
2023/03/11 01:37:47;;;;;;;0.82;0.52;;;0.30;99.90;;;;;;5067095;28;20052;-74
2023/03/11 01:40:37;;;;;;;0.30;0.30;;;0.30;99.90;;;;;;5057953;28;20046;-74
2023/03/11 01:43:05;;;;;;;1.17;0.50;;;0.30;99.90;;;;;;5056627;28;20040;-75
2023/03/11 01:45:41;;;;;;;0.73;0.55;;;0.30;99.90;;;;;;5074274;28;20032;-75
2023/03/11 01:48:09;;;;;;;0.35;0.10;;;0.20;99.90;;;;;;5058197;28;20040;-75
2023/03/11 01:50:39;;;;;;;14.18;0.55;;;0.20;99.90;;;;;;5082087;28;20078;-75
2023/03/11 01:53:06;;;;;;;0.68;0.30;;;0.20;99.90;;;;;;5052652;28;20520;-75
2023/03/11 01:55:32;;;;;;;0.68;0.22;;;0.20;99.90;;;;;;5074281;28;20046;-75
2023/03/11 01:58:01;;;;;;;0.43;0.22;;;0.20;99.90;;;;;;5050412;28;20037;-74
2023/03/11 02:00:26;;;;;;;0.63;0.52;;;0.20;99.90;;;;;;5069281;28;20093;-74
2023/03/11 02:02:54;;;;;;;2.47;0.65;;;0.20;99.90;;;;;;5065762;28;20061;-75
2023/03/11 02:05:21;;;;;;;0.40;0.25;;;0.20;99.90;;;;;;5066127;28;20557;-75
2023/03/11 02:07:49;;;;;;;1.55;0.60;;;0.20;99.90;;;;;;5069920;28;20501;-75
2023/03/11 02:10:14;;;;;;;2.65;0.60;;;0.20;99.90;;;;;;5069817;28;20044;-74
2023/03/11 02:12:41;;;;;;;1.17;0.85;;;0.20;99.90;;;;;;5072087;28;20331;-74
2023/03/11 02:15:09;;;;;;;0.20;0.20;;;0.20;99.90;;;;;;5070379;28;20197;-75
2023/03/11 02:17:36;;;;;;;4.20;0.60;;;0.20;99.90;;;;;;5070600;28;20447;-75
2023/03/11 02:20:08;;;;;;;0.25;0.22;;;0.10;99.90;;;;;;5066596;28;20481;-75
2023/03/11 02:22:34;;;;;;;1.02;0.50;;;0.10;99.90;;;;;;5067588;28;20048;-75
2023/03/11 02:25:29;;;;;;;1.55;0.73;;;0.10;99.90;;;;;;5086611;28;20047;-75
2023/03/11 02:27:57;;;;;;;0.93;0.30;;;0.10;99.90;;;;;;5055016;28;20040;-75
2023/03/11 02:30:26;;;;;;;0.52;0.38;;;0.10;99.90;;;;;;5100613;27;20066;-74
2023/03/11 02:32:53;;;;;;;0.15;0.10;;;0.10;99.90;;;;;;5060315;28;20044;-75
2023/03/11 02:35:19;;;;;;;0.63;0.32;;;0.10;99.90;;;;;;5068275;28;20512;-74
2023/03/11 02:37:48;;;;;;;0.38;0.20;;;0.10;99.90;;;;;;5069119;28;20041;-75
2023/03/11 02:40:36;;;;;;;2.42;0.35;;;0.10;99.90;;;;;;5072880;28;20036;-75
2023/03/11 02:43:07;;;;;;;0.82;0.43;;;0.10;99.90;;;;;;5078506;28;20593;-74
2023/03/11 02:45:34;;;;;;;1.92;0.28;;;0.10;99.90;;;;;;5088727;28;20086;-75
2023/03/11 02:48:00;;;;;;;0.47;0.30;;;0.00;99.90;;;;;;5070664;28;20044;-75
2023/03/11 02:50:28;;;;;;;0.68;0.28;;;0.00;99.90;;;;;;5081280;28;20047;-75
2023/03/11 02:52:54;;;;;;;0.22;0.15;;;0.00;99.90;;;;;;5068885;28;20040;-74
2023/03/11 02:55:19;;;;;;;1.10;0.38;;;-0.10;99.90;;;;;;5072786;28;20127;-74
2023/03/11 02:57:46;;;;;;;0.60;0.30;;;-0.10;99.90;;;;;;5055118;28;20130;-74
2023/03/11 03:00:15;;;;;;;0.43;0.20;;;-0.20;99.90;;;;;;5064030;28;20513;-75
2023/03/11 03:02:41;;;;;;;0.90;0.35;;;-0.30;99.90;;;;;;5069328;28;20040;-75
2023/03/11 03:05:07;;;;;;;1.88;0.70;;;-0.30;99.90;;;;;;5105750;27;20031;-75
2023/03/11 03:07:33;;;;;;;1.75;0.40;;;-0.40;99.90;;;;;;5064342;28;20097;-74
2023/03/11 03:09:59;;;;;;;0.40;0.30;;;-0.50;99.90;;;;;;5084789;28;20551;-74
2023/03/11 03:12:24;;;;;;;1.42;0.45;;;-0.60;99.90;;;;;;5069255;28;20048;-74
2023/03/11 03:14:50;;;;;;;0.40;0.20;;;-0.60;99.90;;;;;;5083861;28;20089;-74
2023/03/11 03:17:16;;;;;;;0.63;0.35;;;-0.70;99.90;;;;;;5069962;28;20541;-74
2023/03/11 03:19:41;;;;;;;0.20;0.17;;;-0.80;99.90;;;;;;5064545;28;20040;-74
2023/03/11 03:22:07;;;;;;;4.43;0.55;;;-0.80;99.90;;;;;;5078200;28;20059;-75
2023/03/11 03:24:32;;;;;;;0.45;0.20;;;-0.80;99.90;;;;;;5058623;28;20060;-74
2023/03/11 03:26:58;;;;;;;0.95;0.45;;;-0.90;99.90;;;;;;5087195;28;20459;-75
2023/03/11 03:29:24;;;;;;;0.30;0.20;;;-0.90;99.90;;;;;;5074251;28;20033;-74
2023/03/11 03:31:49;;;;;;;0.30;0.20;;;-0.90;99.90;;;;;;5066914;28;20542;-75
2023/03/11 03:34:15;;;;;;;1.42;0.73;;;-0.90;99.90;;;;;;5056607;28;20093;-74
2023/03/11 03:36:40;;;;;;;0.65;0.30;;;-0.90;99.90;;;;;;5075883;28;20077;-74
2023/03/11 03:39:06;;;;;;;0.47;0.25;;;-0.90;99.90;;;;;;5068404;28;20131;-74
2023/03/11 03:41:31;;;;;;;0.38;0.20;;;-0.90;99.90;;;;;;5068085;28;20543;-74
2023/03/11 03:43:58;;;;;;;1.15;0.30;;;-0.90;99.90;;;;;;5066489;28;20043;-74
2023/03/11 03:46:23;;;;;;;0.28;0.22;;;-0.90;99.90;;;;;;5085525;28;20039;-74
2023/03/11 03:48:49;;;;;;;4.05;0.38;;;-0.90;99.90;;;;;;5072773;28;20029;-74
2023/03/11 03:51:15;;;;;;;1.60;0.88;;;-0.90;99.90;;;;;;5072673;28;20043;-74
2023/03/11 03:53:41;;;;;;;0.63;0.32;;;-0.90;99.90;;;;;;5060771;28;20130;-74
2023/03/11 03:56:10;;;;;;;0.32;0.28;;;-0.90;99.90;;;;;;5067454;28;20093;-74
2023/03/11 03:58:36;;;;;;;0.25;0.25;;;-0.90;99.90;;;;;;5088435;28;20124;-74
2023/03/11 04:01:03;;;;;;;0.32;0.20;;;-0.90;99.90;;;;;;5049709;28;20040;-74
2023/03/11 04:03:30;;;;;;;0.30;0.30;;;-0.90;99.90;;;;;;5067648;28;20052;-74
2023/03/11 04:06:17;;;;;;;0.65;0.30;;;-1.00;99.90;;;;;;5057725;28;20644;-74
2023/03/11 04:08:43;;;;;;;0.28;0.20;;;-0.90;99.90;;;;;;5055357;28;20032;-74
2023/03/11 04:11:09;;;;;;;0.30;0.20;;;-1.00;99.90;;;;;;5083342;28;20056;-74
2023/03/11 04:13:34;;;;;;;0.90;0.30;;;-1.00;99.90;;;;;;5068381;28;20032;-74
2023/03/11 04:16:03;;;;;;;0.30;0.30;;;-1.00;99.90;;;;;;5076536;28;20043;-73
2023/03/11 04:18:29;;;;;;;0.30;0.10;;;-1.10;99.90;;;;;;5107462;27;20040;-73
2023/03/11 04:20:54;;;;;;;0.30;0.30;;;-1.10;99.90;;;;;;5087920;28;20076;-74
2023/03/11 04:23:20;;;;;;;0.25;0.25;;;-1.20;99.90;;;;;;5086106;28;20036;-73
2023/03/11 04:25:45;;;;;;;0.25;0.20;;;-1.20;99.90;;;;;;5081087;28;20032;-73
2023/03/11 04:28:11;;;;;;;0.30;0.20;;;-1.20;99.90;;;;;;5080065;28;20105;-73
2023/03/11 04:30:37;;;;;;;0.70;0.30;;;-1.20;99.90;;;;;;5084258;28;20496;-73
2023/03/11 04:33:03;;;;;;;0.20;0.10;;;-1.20;99.90;;;;;;5063697;28;20040;-73
2023/03/11 04:35:29;;;;;;;0.50;0.20;;;-1.30;99.90;;;;;;5077499;28;20040;-73
2023/03/11 04:37:54;;;;;;;1.13;0.52;;;-1.30;99.90;;;;;;5080250;28;20041;-73
2023/03/11 04:40:20;;;;;;;1.25;0.60;;;-1.30;99.90;;;;;;5077878;28;20123;-73
2023/03/11 04:42:46;;;;;;;0.13;0.10;;;-1.30;99.90;;;;;;5075597;28;20123;-73
2023/03/11 04:45:12;;;;;;;0.30;0.30;;;-1.40;99.90;;;;;;5083200;28;20561;-73
2023/03/11 04:47:38;;;;;;;0.40;0.25;;;-1.40;99.90;;;;;;5071288;28;20097;-73
2023/03/11 04:50:04;;;;;;;8.50;0.52;;;-1.40;99.90;;;;;;5077944;28;20444;-73
2023/03/11 04:52:29;;;;;;;0.30;0.20;;;-1.40;99.90;;;;;;5077659;28;20045;-73
2023/03/11 04:54:55;;;;;;;0.25;0.20;;;-1.50;99.90;;;;;;5075938;28;20139;-73
2023/03/11 04:57:20;;;;;;;0.10;0.10;;;-1.50;99.90;;;;;;5079526;28;20040;-73
2023/03/11 04:59:46;;;;;;;0.45;0.35;;;-1.50;99.90;;;;;;5086815;28;20040;-73
2023/03/11 05:02:11;;;;;;;0.35;0.30;;;-1.50;99.90;;;;;;5106574;27;20044;-73
2023/03/11 05:04:37;;;;;;;0.63;0.30;;;-1.50;99.90;;;;;;5085896;28;20040;-73
2023/03/11 05:07:03;;;;;;;1.75;0.57;;;-1.50;99.90;;;;;;5069976;28;20072;-73
2023/03/11 05:09:28;;;;;;;0.93;0.30;;;-1.50;99.90;;;;;;5071152;28;20132;-73
2023/03/11 05:11:55;;;;;;;1.10;0.47;;;-1.50;99.90;;;;;;5105547;27;20155;-73
2023/03/11 05:14:20;;;;;;;0.22;0.20;;;-1.50;99.90;;;;;;5074638;28;20037;-73
2023/03/11 05:16:46;;;;;;;0.43;0.20;;;-1.50;99.90;;;;;;5070914;28;20043;-73
2023/03/11 05:19:29;;;;;;;2.90;0.55;;;-1.50;99.90;;;;;;5090228;28;20093;-73
2023/03/11 05:21:55;;;;;;;0.30;0.30;;;-1.50;99.90;;;;;;5060394;28;20043;-73
2023/03/11 05:24:21;;;;;;;0.65;0.28;;;-1.50;99.90;;;;;;5089767;28;20036;-73
2023/03/11 05:26:46;;;;;;;0.10;0.10;;;-1.60;99.90;;;;;;5080671;28;20396;-73
2023/03/11 05:29:12;;;;;;;8.65;0.65;;;-1.60;99.90;;;;;;5087584;28;20039;-73
2023/03/11 05:31:38;;;;;;;1.02;0.28;;;-1.60;99.90;;;;;;5069373;28;20032;-72
2023/03/11 05:34:04;;;;;;;0.35;0.25;;;-1.60;99.90;;;;;;5086243;28;20048;-73
2023/03/11 05:36:30;;;;;;;0.50;0.22;;;-1.60;99.90;;;;;;5063319;28;20043;-73
2023/03/11 05:38:56;;;;;;;0.10;0.10;;;-1.60;99.90;;;;;;5075139;28;20562;-73
2023/03/11 05:41:21;;;;;;;0.25;0.25;;;-1.70;99.90;;;;;;5088569;28;20040;-73
2023/03/11 05:43:47;;;;;;;0.10;0.10;;;-1.80;99.90;;;;;;5079562;28;20067;-73
2023/03/11 05:46:13;;;;;;;2.17;0.50;;;-1.80;99.90;;;;;;5110668;27;20180;-73
2023/03/11 05:48:38;;;;;;;0.80;0.32;;;-1.90;99.90;;;;;;5053476;28;20041;-72
2023/03/11 05:51:11;;;;;;;0.30;0.30;;;-1.90;99.90;;;;;;5068199;28;20040;-73
2023/03/11 05:53:37;;;;;;;1.30;0.40;;;-1.90;99.90;;;;;;5080545;28;20033;-73
2023/03/11 05:56:03;;;;;;;0.55;0.28;;;-1.90;99.90;;;;;;5081752;28;20045;-72
2023/03/11 05:58:30;;;;;;;0.28;0.25;;;-1.90;99.90;;;;;;5110853;27;20492;-73
2023/03/11 06:00:56;;;;;;;0.75;0.40;;;-1.90;99.90;;;;;;5087622;28;20044;-73
2023/03/11 06:03:22;;;;;;;0.65;0.30;;;-1.90;99.90;;;;;;5082780;28;20039;-73
2023/03/11 06:05:49;;;;;;;7.90;0.77;;;-1.80;99.90;;;;;;5074474;28;20789;-73
2023/03/11 06:08:15;;;;;;;0.63;0.40;;;-1.80;99.90;;;;;;5068547;28;20410;-73
2023/03/11 06:10:41;;;;;;;0.73;0.40;;;-1.80;99.90;;;;;;5074601;28;20036;-73
2023/03/11 06:13:07;;;;;;;0.52;0.32;;;-1.90;99.90;;;;;;5057993;28;20060;-72
2023/03/11 06:15:33;;;;;;;0.30;0.30;;;-1.90;99.90;;;;;;5060011;28;20555;-73
2023/03/11 06:17:59;;;;;;;2.90;0.38;;;-1.90;99.90;;;;;;5096622;28;20130;-72
2023/03/11 06:20:25;;;;;;;0.65;0.25;;;-1.90;99.90;;;;;;5076559;28;20189;-73
2023/03/11 06:22:51;;;;;;;0.45;0.30;;;-1.90;99.90;;;;;;5069883;28;20077;-72
2023/03/11 06:25:17;;;;;;;0.55;0.32;;;-2.00;99.90;;;;;;5064792;28;20716;-73
2023/03/11 06:27:43;;;;;;;0.98;0.40;;;-2.00;99.90;;;;;;5086899;28;20107;-72
2023/03/11 06:30:10;;;;;;;0.43;0.30;;;-2.00;99.90;;;;;;5066307;28;20044;-72
2023/03/11 06:32:36;;;;;;;0.32;0.17;;;-2.00;99.90;;;;;;5072374;28;20036;-72
2023/03/11 06:35:03;;;;;;;0.90;0.40;;;-2.00;99.90;;;;;;5071231;28;20040;-72
2023/03/11 06:37:28;;;;;;;0.88;0.40;;;-2.00;99.90;;;;;;5093337;27;20033;-72
2023/03/11 06:39:54;;;;;;;1.45;0.20;;;-2.00;99.90;;;;;;5069312;28;20120;-72
2023/03/11 06:42:22;;;;;;;1.50;0.63;;;-2.10;99.90;;;;;;5100015;28;20409;-73
2023/03/11 06:44:49;;;;;;;0.63;0.30;;;-2.10;99.90;;;;;;5066688;28;20037;-72
2023/03/11 06:47:15;;;;;;;0.40;0.30;;;-2.10;99.90;;;;;;5101653;28;20037;-72
2023/03/11 06:49:41;;;;;;;1.17;0.40;;;-2.10;99.90;;;;;;5070719;28;20042;-72
2023/03/11 06:52:08;;;;;;;0.98;0.25;;;-2.10;99.90;;;;;;5080297;28;20054;-73
2023/03/11 06:54:34;;;;;;;2.50;0.82;;;-2.10;99.90;;;;;;5083008;28;20987;-72
2023/03/11 06:57:00;;;;;;;1.58;0.68;;;-2.00;99.90;;;;;;5112423;27;20050;-72
2023/03/11 06:59:27;;;;;;;0.52;0.50;;;-2.00;99.90;;;;;;5093265;28;20036;-72
2023/03/11 07:01:53;;;;;;;0.28;0.25;;;-2.00;99.90;;;;;;5088049;28;20046;-72
2023/03/11 07:04:18;;;;;;;0.40;0.40;;;-2.00;99.90;;;;;;5064882;28;20028;-73
2023/03/11 07:06:44;;;;;;;1.10;0.35;;;-1.90;99.90;;;;;;5070721;28;20094;-74
2023/03/11 07:09:10;;;;;;;0.43;0.28;;;-1.90;99.90;;;;;;5077976;28;20029;-73
2023/03/11 07:11:36;;;;;;;1.73;0.65;;;-1.80;99.90;;;;;;5055814;28;20209;-72
2023/03/11 07:14:01;;;;;;;0.35;0.32;;;-1.80;99.90;;;;;;5106338;28;20076;-72
2023/03/11 07:16:28;;;;;;;0.22;0.20;;;-1.70;99.90;;;;;;5079119;28;20032;-72
2023/03/11 07:18:57;;;;;;;0.40;0.20;;;-1.70;99.90;;;;;;5068791;28;20036;-72
2023/03/11 07:21:24;;;;;;;0.55;0.30;;;-1.60;99.90;;;;;;5083004;28;20043;-72
2023/03/11 07:23:57;;;;;;;0.38;0.28;;;-1.60;99.90;;;;;;5067458;28;20040;-72
2023/03/11 07:26:25;;;;;;;1.23;0.30;;;-1.50;99.90;;;;;;5067875;28;20037;-72
2023/03/11 07:28:52;;;;;;;0.38;0.20;;;-1.50;99.90;;;;;;5065330;28;20170;-72
2023/03/11 07:31:22;;;;;;;9.32;0.82;;;-1.50;99.90;;;;;;5050286;28;20497;-72
2023/03/11 07:33:48;;;;;;;0.50;0.25;;;-1.40;99.90;;;;;;5052299;28;20418;-72
2023/03/11 07:36:16;;;;;;;0.35;0.32;;;-1.40;99.90;;;;;;5087363;28;20177;-73
2023/03/11 07:38:42;;;;;;;0.30;0.25;;;-1.40;99.90;;;;;;5067294;28;20032;-72
2023/03/11 07:41:10;;;;;;;0.10;0.10;;;-1.40;99.90;;;;;;5052835;28;20504;-76
2023/03/11 07:43:36;;;;;;;0.98;0.22;;;-1.30;99.90;;;;;;5094506;28;20055;-72
2023/03/11 07:46:11;;;;;;;1.48;0.75;;;-1.20;99.90;;;;;;5069974;28;20390;-72
2023/03/11 07:48:38;;;;;;;0.60;0.40;;;-1.20;99.90;;;;;;5068433;28;20101;-73
2023/03/11 07:51:11;;;;;;;1.13;0.22;;;-1.10;99.90;;;;;;5098168;28;20040;-72
2023/03/11 07:53:39;;;;;;;0.10;0.10;;;-1.10;99.90;;;;;;5074242;28;20339;-72
2023/03/11 07:56:06;;;;;;;0.28;0.22;;;-1.00;99.90;;;;;;5079479;28;20089;-72
2023/03/11 07:58:32;;;;;;;0.95;0.40;;;-1.00;99.90;;;;;;5068740;28;20127;-72
2023/03/11 08:01:09;;;;;;;1.25;0.20;;;-0.90;99.90;;;;;;5055755;28;20106;-72
2023/03/11 08:03:35;;;;;;;2.90;0.47;;;-0.90;99.90;;;;;;5058589;28;20262;-73
2023/03/11 08:06:01;;;;;;;1.08;0.55;;;-0.80;99.90;;;;;;5105258;27;20043;-72
2023/03/11 08:08:27;;;;;;;1.95;0.63;;;-0.80;99.90;;;;;;5075985;28;20535;-73
2023/03/11 08:10:53;;;;;;;0.25;0.25;;;-0.70;99.90;;;;;;5080451;28;20040;-72
2023/03/11 08:13:19;;;;;;;0.50;0.40;;;-0.70;99.90;;;;;;5067239;28;20051;-73
2023/03/11 08:15:44;;;;;;;0.60;0.43;;;-0.60;99.90;;;;;;5076829;28;20041;-73
2023/03/11 08:18:10;;;;;;;1.17;0.50;;;-0.60;99.90;;;;;;5071725;28;20373;-74
2023/03/11 08:20:39;;;;;;;0.45;0.30;;;-0.50;99.90;;;;;;5067661;28;20499;-73
2023/03/11 08:23:05;;;;;;;0.90;0.50;;;-0.50;99.90;;;;;;5072556;28;20042;-73
2023/03/11 08:25:30;;;;;;;0.88;0.57;;;-0.40;99.90;;;;;;5071699;28;20400;-73
2023/03/11 08:27:56;;;;;;;1.05;0.50;;;-0.40;99.90;;;;;;5070898;28;20033;-73
2023/03/11 08:30:22;;;;;;;0.75;0.60;;;-0.40;99.90;;;;;;5050647;28;21186;-74
2023/03/11 08:32:48;;;;;;;0.15;0.15;;;-0.30;99.90;;;;;;5071643;28;20032;-73
2023/03/11 08:35:15;;;;;;;0.85;0.28;;;-0.20;99.90;;;;;;5074165;28;20087;-73
2023/03/11 08:37:41;;;;;;;0.73;0.43;;;-0.20;99.90;;;;;;5059765;28;20043;-74
2023/03/11 08:40:09;;;;;;;0.35;0.30;;;-0.10;99.90;;;;;;5070902;28;20097;-74
2023/03/11 08:42:34;;;;;;;0.68;0.50;;;-0.10;99.90;;;;;;5073432;28;20079;-73
2023/03/11 08:45:00;;;;;;;0.45;0.35;;;-0.10;99.90;;;;;;5072304;28;20115;-74
2023/03/11 08:47:26;;;;;;;0.30;0.25;;;0.00;99.90;;;;;;5072457;28;20047;-74
2023/03/11 08:49:51;;;;;;;2.15;0.40;;;0.00;99.90;;;;;;5071934;28;20872;-73
2023/03/11 08:52:17;;;;;;;2.15;0.65;;;0.10;99.90;;;;;;5055841;28;20043;-74
2023/03/11 08:54:42;;;;;;;0.35;0.35;;;0.10;99.90;;;;;;5079139;28;20047;-76
2023/03/11 08:57:08;;;;;;;1.30;0.20;;;0.20;99.90;;;;;;5054989;28;20626;-79
2023/03/11 08:59:35;;;;;;;1.75;0.40;;;0.20;99.90;;;;;;5084725;28;20040;-76
2023/03/11 09:02:00;;;;;;;0.85;0.45;;;0.20;99.90;;;;;;5065519;28;20181;-73
2023/03/11 09:04:26;;;;;;;0.57;0.30;;;0.30;99.90;;;;;;5065379;28;20037;-73
2023/03/11 09:06:51;;;;;;;0.35;0.30;;;0.30;99.90;;;;;;5068298;28;20047;-73
2023/03/11 09:09:19;;;;;;;0.45;0.40;;;0.40;99.90;;;;;;5067982;28;20036;-72
2023/03/11 09:11:46;;;;;;;0.52;0.28;;;0.40;99.90;;;;;;5070097;28;20053;-73
2023/03/11 09:14:11;;;;;;;1.08;0.45;;;0.50;99.90;;;;;;5100552;27;20123;-73
2023/03/11 09:16:37;;;;;;;0.45;0.30;;;0.50;99.90;;;;;;5050945;28;20043;-73
2023/03/11 09:19:06;;;;;;;2.38;0.32;;;0.60;99.90;;;;;;5076592;28;20042;-73
2023/03/11 09:21:32;;;;;;;2.22;0.45;;;0.60;99.90;;;;;;5064713;28;20040;-73
2023/03/11 09:23:58;;;;;;;4.70;0.88;;;0.60;99.90;;;;;;5054424;28;20394;-73
2023/03/11 09:26:25;;;;;;;0.95;0.40;;;0.70;99.90;;;;;;5082161;28;20040;-73
2023/03/11 09:28:50;;;;;;;2.28;0.52;;;0.70;99.90;;;;;;5070108;28;20032;-73
2023/03/11 09:31:16;;;;;;;0.40;0.38;;;0.70;99.90;;;;;;5084228;28;20040;-73
2023/03/11 09:33:43;;;;;;;0.38;0.38;;;0.80;99.90;;;;;;5078361;28;21912;-73
2023/03/11 09:36:13;;;;;;;1.55;0.85;;;0.80;99.90;;;;;;5058157;28;20046;-73
2023/03/11 09:38:40;;;;;;;2.08;0.70;;;0.80;99.90;;;;;;5074046;28;20396;-73
2023/03/11 09:41:42;;;;;;;2.35;0.50;;;0.90;99.90;;;;;;5069765;28;20098;-73
2023/03/11 09:44:25;;;;;;;1.83;0.40;;;0.90;99.90;;;;;;5086542;28;20036;-73
2023/03/11 09:47:09;;;;;;;1.35;0.43;;;0.90;99.90;;;;;;5110165;27;20088;-73
2023/03/11 09:50:04;;;;;;;2.80;0.50;;;1.00;99.90;;;;;;5072463;28;20032;-73
2023/03/11 09:53:09;;;;;;;1.85;0.38;;;1.00;99.90;;;;;;5083417;28;20087;-73
2023/03/11 09:55:41;;;;;;;6.07;1.10;;;1.00;99.90;;;;;;5085307;28;20101;-73
2023/03/11 09:58:16;;;;;;;1.17;0.43;;;1.00;99.90;;;;;;5115627;27;20044;-73
2023/03/11 10:00:43;;;;;;;0.95;0.55;;;1.10;99.90;;;;;;5102060;27;20525;-73
2023/03/11 10:03:25;;;;;;;1.40;0.60;;;1.10;99.90;;;;;;5084337;28;20035;-73
2023/03/11 10:05:53;;;;;;;2.50;0.40;;;1.10;99.90;;;;;;5081905;28;20044;-73
2023/03/11 10:08:39;;;;;;;0.30;0.25;;;1.20;99.90;;;;;;5057528;28;20454;-73
2023/03/11 10:11:23;;;;;;;2.22;0.57;;;1.20;99.90;;;;;;5069983;28;20178;-73
2023/03/11 10:14:22;;;;;;;1.35;0.63;;;1.20;99.90;;;;;;5061935;28;20142;-73
2023/03/11 10:17:14;;;;;;;0.90;0.30;;;1.20;99.90;;;;;;5067430;28;20040;-73
2023/03/11 10:19:49;;;;;;;5.78;0.77;;;1.30;99.90;;;;;;5065687;28;20155;-73
2023/03/11 10:22:27;;;;;;;0.93;0.10;;;1.30;99.90;;;;;;5057719;28;20098;-73
2023/03/11 10:25:12;;;;;;;0.30;0.30;;;1.30;99.90;;;;;;5082553;28;20231;-74
2023/03/11 10:27:55;;;;;;;0.52;0.20;;;1.40;99.90;;;;;;5055762;28;20036;-73
2023/03/11 10:30:33;;;;;;;1.17;0.40;;;1.50;99.90;;;;;;5056569;28;20060;-73
2023/03/11 10:33:05;;;;;;;0.50;0.40;;;1.50;99.90;;;;;;5066513;28;20044;-73
2023/03/11 10:35:43;;;;;;;1.08;0.60;;;1.50;99.90;;;;;;5053354;28;20041;-73
2023/03/11 10:38:27;;;;;;;0.50;0.30;;;1.60;99.90;;;;;;5083156;28;20444;-73
2023/03/11 10:40:56;;;;;;;0.55;0.20;;;1.60;99.90;;;;;;5076081;28;20452;-73
2023/03/11 10:43:32;;;;;;;1.98;0.43;;;1.70;99.90;;;;;;5059555;28;20143;-73
2023/03/11 10:45:58;;;;;;;;;;;1.70;99.90;;;;;;5061539;28;20070;-73
2023/03/11 10:48:24;;;;;;;1.17;0.97;;;1.70;99.90;;;;;;5076000;28;19963;-73
2023/03/11 10:51:11;;;;;;;1.60;0.63;;;1.70;99.90;;;;;;5069062;28;20302;-73
2023/03/11 10:53:49;;;;;;;7.32;0.98;;;1.80;99.90;;;;;;5087566;28;20081;-73
2023/03/11 10:56:34;;;;;;;5.28;0.50;;;1.80;99.90;;;;;;5068104;28;20075;-73
2023/03/11 10:59:01;;;;;;;1.23;0.50;;;1.90;99.90;;;;;;5089849;28;20043;-73
2023/03/11 11:01:30;;;;;;;6.28;0.90;;;1.90;99.90;;;;;;5077457;28;20040;-75
2023/03/11 11:03:59;;;;;;;1.02;0.43;;;1.90;99.90;;;;;;5056351;28;20028;-73
2023/03/11 11:06:29;;;;;;;3.13;0.93;;;2.00;99.90;;;;;;5064545;28;20611;-73
2023/03/11 11:09:14;;;;;;;0.90;0.50;;;2.00;99.90;;;;;;5085528;28;20075;-73
2023/03/11 11:11:41;;;;;;;1.50;0.52;;;2.00;99.90;;;;;;5077135;28;20584;-73
2023/03/11 11:14:09;;;;;;;1.65;0.77;;;2.10;99.90;;;;;;5107799;27;20128;-73
2023/03/11 11:16:35;;;;;;;0.70;0.60;;;2.20;99.90;;;;;;5084515;28;20042;-73
2023/03/11 11:19:12;;;;;;;0.60;0.50;;;2.20;99.90;;;;;;5069529;28;20045;-73
2023/03/11 11:21:38;;;;;;;1.30;0.43;;;2.20;99.90;;;;;;5083275;28;20032;-73
2023/03/11 11:24:12;;;;;;;0.95;0.43;;;2.30;99.90;;;;;;5069734;28;20109;-73
2023/03/11 11:26:38;;;;;;;1.63;0.80;;;2.30;99.90;;;;;;5083329;28;20281;-73
2023/03/11 11:29:08;;;;;;;1.85;0.50;;;2.30;99.90;;;;;;5090505;28;20417;-73
2023/03/11 11:31:35;;;;;;;1.23;0.65;;;2.40;99.90;;;;;;5081377;28;20316;-74
2023/03/11 11:34:01;;;;;;;1.88;0.50;;;2.40;99.90;;;;;;5112907;27;20032;-74
2023/03/11 11:36:29;;;;;;;2.00;0.77;;;2.40;99.90;;;;;;5090470;27;20485;-74
2023/03/11 11:38:57;;;;;;;2.70;0.60;;;2.40;99.90;;;;;;5073026;28;20036;-73
2023/03/11 11:41:26;;;;;;;1.08;0.55;;;2.50;99.90;;;;;;5070595;28;20111;-74
2023/03/11 11:43:53;;;;;;;1.52;0.40;;;2.50;99.90;;;;;;5081287;28;20119;-74
2023/03/11 11:46:28;;;;;;;0.95;0.30;;;2.50;99.90;;;;;;5077871;28;20508;-74
2023/03/11 11:49:20;;;;;;;1.40;0.60;;;2.50;99.90;;;;;;5070501;28;20551;-73
2023/03/11 11:51:52;;;;;;;0.88;0.82;;;2.60;99.90;;;;;;5078892;28;20036;-73
2023/03/11 11:54:25;;;;;;;2.13;0.80;;;2.60;99.90;;;;;;5070222;28;20064;-73
2023/03/11 11:56:51;;;;;;;1.05;0.60;;;2.60;99.90;;;;;;5091735;28;20452;-74
2023/03/11 11:59:20;;;;;;;6.80;0.95;;;2.60;99.90;;;;;;5079295;28;20127;-73
2023/03/11 12:01:51;;;;;;;1.67;0.40;;;2.60;99.90;;;;;;5072025;28;20496;-74
2023/03/11 12:04:24;;;;;;;0.90;0.40;;;2.70;99.90;;;;;;5071385;28;20532;-74
2023/03/11 12:07:01;;;;;;;0.60;0.30;;;2.70;99.90;;;;;;5069828;28;20041;-74
2023/03/11 12:09:39;;;;;;;1.30;0.50;;;2.80;99.90;;;;;;5071233;28;20094;-74
2023/03/11 12:12:33;;;;;;;1.27;0.52;;;2.80;99.90;;;;;;5070417;28;20468;-74
2023/03/11 12:15:08;;;;;;;4.22;0.60;;;2.90;99.90;;;;;;5086117;28;20475;-74
2023/03/11 12:17:38;;;;;;;1.85;0.60;;;2.90;99.90;;;;;;5070556;28;20055;-75
2023/03/11 12:20:35;;;;;;;1.08;0.40;;;2.90;99.90;;;;;;5078629;28;20079;-75
2023/03/11 12:23:41;;;;;;;0.55;0.30;;;3.00;99.90;;;;;;5070047;28;20054;-75
2023/03/11 12:26:25;;;;;;;1.02;0.38;;;3.00;99.90;;;;;;5104936;28;20063;-75
2023/03/11 12:28:56;;;;;;;1.00;0.60;;;3.00;99.90;;;;;;5070598;28;20375;-75
2023/03/11 12:31:26;;;;;;;1.45;0.30;;;3.10;99.90;;;;;;5054639;28;20033;-76
2023/03/11 12:34:01;;;;;;;0.60;0.30;;;3.10;99.90;;;;;;5080979;28;20048;-76
2023/03/11 12:36:32;;;;;;;9.63;0.85;;;3.10;99.90;;;;;;5052461;28;20044;-75
2023/03/11 12:39:01;;;;;;;0.75;0.45;;;3.10;99.90;;;;;;5112487;27;20505;-75
2023/03/11 12:41:40;;;;;;;0.75;0.32;;;3.20;99.90;;;;;;5070418;28;20046;-79
2023/03/11 12:44:28;;;;;;;3.20;1.08;;;3.20;99.90;;;;;;5077575;28;20045;-77
2023/03/11 12:46:57;;;;;;;0.85;0.40;;;3.20;99.90;;;;;;5086798;28;20036;-75
2023/03/11 12:49:25;;;;;;;0.95;0.47;;;3.20;99.90;;;;;;5069067;28;20037;-75
2023/03/11 12:52:07;;;;;;;1.95;0.60;;;3.30;99.90;;;;;;5053057;28;20043;-75
2023/03/11 12:54:35;;;;;;;0.70;0.22;;;3.30;99.90;;;;;;5059730;28;20577;-75
2023/03/11 12:57:09;;;;;;;2.50;0.50;;;3.30;99.90;;;;;;5090326;28;20042;-74
2023/03/11 12:59:56;;;;;;;3.05;0.57;;;3.30;99.90;;;;;;5088544;28;20038;-75
2023/03/11 13:02:27;;;;;;;0.45;0.28;;;3.40;99.90;;;;;;5073553;28;20046;-75
2023/03/11 13:05:13;;;;;;;6.40;0.70;;;3.40;99.90;;;;;;5089474;28;20400;-74